HISTORICAL SENSOR DATA

Sensor Data Report

DB LIVE
CURRENT TIME--:--:--
DEVICE NETWORK Gateway Status
13 ESP · realtime ~1s · history 60s
Weather WS-MOD-01
ONLINE
Actuator ACT-MOD-01
OFFLINE
Mainboard L3 MB-L3-01
ONLINE
Mainboard L5 MB-L5-01
ONLINE
Remote AC AC-REMOTE-01
ONLINE
PZEM L3-01 PWR-L3-01
OFFLINE
PZEM L3-02 PWR-L3-02
OFFLINE
PZEM L3-03 PWR-L3-03
OFFLINE
PZEM L3-04 PWR-L3-04
OFFLINE
PZEM L5-01 PWR-L5-01
ONLINE
PZEM L5-02 PWR-L5-02
ONLINE
PZEM L5-03 PWR-L5-03
OFFLINE
PZEM L5-04 PWR-L5-04
OFFLINE
REPORT FILTER

Periode & Sensor

DATABASE HISTORY
RESET
QUICK RANGE Hari ini 7 hari 30 hari
PERIODE01 Sep 2026sampai 07 Sep 2026
TOTAL DATA83,538sensor readings
MINIMUM-0.50sesuai filter
AVERAGE75.42sesuai filter
MAXIMUM32,564.20sesuai filter
REPORT RESULT

Data Sensor

01/09/2026 — 07/09/2026 EXPORT CSV
NOTANGGALWAKTUDEVICECHANNELSENSORVALUEUNIT
401 07/09/2026 03:47:00 MB-L3-01Mainboard Lantai 3 L3-AI-02 Analog Input 2 3.12 V
402 07/09/2026 03:47:00 MB-L3-01Mainboard Lantai 3 L3-LUX-04 Illuminance / LUX 4 0.10 lux
403 07/09/2026 03:47:00 MB-L5-01Mainboard Lantai 5 L5-LUX-04 Illuminance / LUX 4 0.10 lux
404 07/09/2026 03:47:00 PWR-L5-01Power Meter L5 PZEM 01 PZEM-L5-01-POWER PZEM L5-01 Active Power 10.70 W
405 07/09/2026 03:46:00 MB-L5-01Mainboard Lantai 5 L5-SHT-02-RH SHT20 2 Humidity 46.20 %RH
406 07/09/2026 03:46:00 MB-L3-01Mainboard Lantai 3 L3-RAD-01 Radiation 1 1.00 W/m²
407 07/09/2026 03:46:00 MB-L3-01Mainboard Lantai 3 L3-AI-03 Analog Input 3 3.12 V
408 07/09/2026 03:46:00 MB-L3-01Mainboard Lantai 3 L3-SHT-02-RH SHT20 2 Humidity 46.20 %RH
409 07/09/2026 03:46:00 MB-L5-01Mainboard Lantai 5 L5-RAD-02 Radiation 2 1.00 W/m²
410 07/09/2026 03:46:00 MB-L5-01Mainboard Lantai 5 L5-SHT-01-T SHT20 1 Temperature 28.00 °C
411 07/09/2026 03:46:00 AC-REMOTE-01Remote AC AC-POWER AC Power State 1.00 state
412 07/09/2026 03:46:00 PWR-L5-01Power Meter L5 PZEM 01 PZEM-L5-01-PF PZEM L5-01 Power Factor 0.38
413 07/09/2026 03:46:00 MB-L5-01Mainboard Lantai 5 L5-RAD-01 Radiation 1 1.00 W/m²
414 07/09/2026 03:46:00 MB-L5-01Mainboard Lantai 5 L5-BGT-03 Black Globe Temperature 3 25.80 °C
415 07/09/2026 03:46:00 PWR-L5-02Power Meter L5 PZEM 02 PZEM-L5-02-POWER PZEM L5-02 Active Power 0.00 W
416 07/09/2026 03:46:00 MB-L5-01Mainboard Lantai 5 L5-LUX-01 Illuminance / LUX 1 0.00 lux
417 07/09/2026 03:46:00 MB-L3-01Mainboard Lantai 3 L3-AI-06 Analog Input 6 3.12 V
418 07/09/2026 03:46:00 MB-L3-01Mainboard Lantai 3 L3-LUX-06 Illuminance / LUX 6 0.30 lux
419 07/09/2026 03:46:00 MB-L3-01Mainboard Lantai 3 L3-LUX-01 Illuminance / LUX 1 0.20 lux
420 07/09/2026 03:46:00 PWR-L5-02Power Meter L5 PZEM 02 PZEM-L5-02-PF PZEM L5-02 Power Factor 0.00
421 07/09/2026 03:46:00 MB-L5-01Mainboard Lantai 5 L5-AI-03 Analog Input 3 3.05 V
422 07/09/2026 03:46:00 MB-L3-01Mainboard Lantai 3 L3-LUX-03 Illuminance / LUX 3 0.20 lux
423 07/09/2026 03:46:00 MB-L5-01Mainboard Lantai 5 L5-AI-06 Analog Input 6 3.05 V
424 07/09/2026 03:46:00 WS-MOD-01Weather Station Module WS-WIND Kecepatan Angin 6.10 m/s
425 07/09/2026 03:46:00 MB-L3-01Mainboard Lantai 3 L3-AI-01 Analog Input 1 3.12 V
426 07/09/2026 03:46:00 WS-MOD-01Weather Station Module WS-PRES Tekanan Udara 910.00 hPa
427 07/09/2026 03:46:00 MB-L5-01Mainboard Lantai 5 L5-HFT-02 Heat Flow Temperature 2 21.60 °C
428 07/09/2026 03:46:00 AC-REMOTE-01Remote AC AC-FAN AC Fan Speed 0.00 code
429 07/09/2026 03:46:00 MB-L5-01Mainboard Lantai 5 L5-LUX-06 Illuminance / LUX 6 0.10 lux
430 07/09/2026 03:46:00 MB-L5-01Mainboard Lantai 5 L5-ST-01 Surface Temperature 1 22.80 °C
431 07/09/2026 03:46:00 MB-L3-01Mainboard Lantai 3 L3-AI-04 Analog Input 4 3.12 V
432 07/09/2026 03:46:00 MB-L5-01Mainboard Lantai 5 L5-BGT-01 Black Globe Temperature 1 26.10 °C
433 07/09/2026 03:46:00 MB-L3-01Mainboard Lantai 3 L3-LUX-02 Illuminance / LUX 2 0.20 lux
434 07/09/2026 03:46:00 MB-L3-01Mainboard Lantai 3 L3-RAD-02 Radiation 2 0.00 W/m²
435 07/09/2026 03:46:00 PWR-L5-01Power Meter L5 PZEM 01 PZEM-L5-01-VOLT PZEM L5-01 Voltage 227.40 V
436 07/09/2026 03:46:00 PWR-L5-02Power Meter L5 PZEM 02 PZEM-L5-02-CURR PZEM L5-02 Current 0.00 A
437 07/09/2026 03:46:00 MB-L3-01Mainboard Lantai 3 L3-LUX-05 Illuminance / LUX 5 0.30 lux
438 07/09/2026 03:46:00 MB-L3-01Mainboard Lantai 3 L3-SHT-03-T SHT20 3 Temperature 28.50 °C
439 07/09/2026 03:46:00 PWR-L5-02Power Meter L5 PZEM 02 PZEM-L5-02-FREQ PZEM L5-02 Frequency 50.00 Hz
440 07/09/2026 03:46:00 MB-L5-01Mainboard Lantai 5 L5-AI-01 Analog Input 1 3.05 V
441 07/09/2026 03:46:00 MB-L5-01Mainboard Lantai 5 L5-LUX-03 Illuminance / LUX 3 0.10 lux
442 07/09/2026 03:46:00 MB-L3-01Mainboard Lantai 3 L3-SHT-01-RH SHT20 1 Humidity 47.00 %RH
443 07/09/2026 03:46:00 MB-L5-01Mainboard Lantai 5 L5-AI-04 Analog Input 4 3.05 V
444 07/09/2026 03:46:00 PWR-L5-01Power Meter L5 PZEM 01 PZEM-L5-01-CURR PZEM L5-01 Current 0.12 A
445 07/09/2026 03:46:00 AC-REMOTE-01Remote AC AC-MODE AC Operating Mode 1.00 code
446 07/09/2026 03:46:00 MB-L5-01Mainboard Lantai 5 L5-ST-02 Surface Temperature 2 21.90 °C
447 07/09/2026 03:46:00 WS-MOD-01Weather Station Module WS-RH Kelembapan Udara 80.90 %RH
448 07/09/2026 03:46:00 MB-L3-01Mainboard Lantai 3 L3-AI-02 Analog Input 2 3.12 V
449 07/09/2026 03:46:00 MB-L3-01Mainboard Lantai 3 L3-LUX-04 Illuminance / LUX 4 0.10 lux
450 07/09/2026 03:46:00 MB-L5-01Mainboard Lantai 5 L5-LUX-04 Illuminance / LUX 4 0.10 lux
451 07/09/2026 03:46:00 PWR-L5-01Power Meter L5 PZEM 01 PZEM-L5-01-POWER PZEM L5-01 Active Power 10.60 W
452 07/09/2026 03:46:00 MB-L3-01Mainboard Lantai 3 L3-AI-05 Analog Input 5 3.12 V
453 07/09/2026 03:46:00 MB-L5-01Mainboard Lantai 5 L5-BGT-02 Black Globe Temperature 2 26.10 °C
454 07/09/2026 03:46:00 MB-L3-01Mainboard Lantai 3 L3-SHT-02-T SHT20 2 Temperature 28.30 °C
455 07/09/2026 03:46:00 PWR-L5-02Power Meter L5 PZEM 02 PZEM-L5-02-VOLT PZEM L5-02 Voltage 227.20 V
456 07/09/2026 03:46:00 MB-L5-01Mainboard Lantai 5 L5-LUX-02 Illuminance / LUX 2 0.10 lux
457 07/09/2026 03:46:00 PWR-L5-01Power Meter L5 PZEM 01 PZEM-L5-01-ENERGY PZEM L5-01 Energy 0.10 kWh
458 07/09/2026 03:46:00 AC-REMOTE-01Remote AC AC-SETPOINT AC Set Temperature 23.00 °C
459 07/09/2026 03:46:00 PWR-L5-02Power Meter L5 PZEM 02 PZEM-L5-02-ENERGY PZEM L5-02 Energy 0.04 kWh
460 07/09/2026 03:46:00 MB-L3-01Mainboard Lantai 3 L3-SHT-01-T SHT20 1 Temperature 28.00 °C
461 07/09/2026 03:46:00 MB-L5-01Mainboard Lantai 5 L5-SHT-03-RH SHT20 3 Humidity 46.70 %RH
462 07/09/2026 03:46:00 MB-L5-01Mainboard Lantai 5 L5-SHT-01-RH SHT20 1 Humidity 47.20 %RH
463 07/09/2026 03:46:00 MB-L5-01Mainboard Lantai 5 L5-AI-02 Analog Input 2 3.05 V
464 07/09/2026 03:46:00 MB-L5-01Mainboard Lantai 5 L5-AI-05 Analog Input 5 3.05 V
465 07/09/2026 03:46:00 WS-MOD-01Weather Station Module WS-DIR Arah Angin 66.80 °
466 07/09/2026 03:46:00 MB-L5-01Mainboard Lantai 5 L5-SHT-02-T SHT20 2 Temperature 28.40 °C
467 07/09/2026 03:46:00 WS-MOD-01Weather Station Module WS-TEMP Suhu Udara 18.40 °C
468 07/09/2026 03:46:00 MB-L5-01Mainboard Lantai 5 L5-SHT-03-T SHT20 3 Temperature 28.30 °C
469 07/09/2026 03:46:00 MB-L3-01Mainboard Lantai 3 L3-SHT-03-RH SHT20 3 Humidity 46.10 %RH
470 07/09/2026 03:46:00 MB-L5-01Mainboard Lantai 5 L5-HFT-01 Heat Flow Temperature 1 22.70 °C
471 07/09/2026 03:46:00 PWR-L5-01Power Meter L5 PZEM 01 PZEM-L5-01-FREQ PZEM L5-01 Frequency 50.00 Hz
472 07/09/2026 03:45:00 PWR-L5-02Power Meter L5 PZEM 02 PZEM-L5-02-PF PZEM L5-02 Power Factor 0.00
473 07/09/2026 03:45:00 MB-L5-01Mainboard Lantai 5 L5-AI-03 Analog Input 3 3.05 V
474 07/09/2026 03:45:00 MB-L3-01Mainboard Lantai 3 L3-LUX-03 Illuminance / LUX 3 0.20 lux
475 07/09/2026 03:45:00 MB-L5-01Mainboard Lantai 5 L5-AI-06 Analog Input 6 3.05 V
476 07/09/2026 03:45:00 WS-MOD-01Weather Station Module WS-WIND Kecepatan Angin 7.57 m/s
477 07/09/2026 03:45:00 MB-L3-01Mainboard Lantai 3 L3-AI-01 Analog Input 1 3.12 V
478 07/09/2026 03:45:00 WS-MOD-01Weather Station Module WS-PRES Tekanan Udara 910.00 hPa
479 07/09/2026 03:45:00 MB-L5-01Mainboard Lantai 5 L5-HFT-02 Heat Flow Temperature 2 21.70 °C
480 07/09/2026 03:45:00 AC-REMOTE-01Remote AC AC-FAN AC Fan Speed 0.00 code
481 07/09/2026 03:45:00 MB-L5-01Mainboard Lantai 5 L5-LUX-06 Illuminance / LUX 6 0.10 lux
482 07/09/2026 03:45:00 MB-L5-01Mainboard Lantai 5 L5-ST-01 Surface Temperature 1 22.70 °C
483 07/09/2026 03:45:00 MB-L3-01Mainboard Lantai 3 L3-AI-04 Analog Input 4 3.12 V
484 07/09/2026 03:45:00 MB-L5-01Mainboard Lantai 5 L5-BGT-01 Black Globe Temperature 1 26.10 °C
485 07/09/2026 03:45:00 MB-L3-01Mainboard Lantai 3 L3-LUX-02 Illuminance / LUX 2 0.20 lux
486 07/09/2026 03:45:00 MB-L3-01Mainboard Lantai 3 L3-RAD-02 Radiation 2 1.00 W/m²
487 07/09/2026 03:45:00 PWR-L5-01Power Meter L5 PZEM 01 PZEM-L5-01-VOLT PZEM L5-01 Voltage 227.20 V
488 07/09/2026 03:45:00 PWR-L5-02Power Meter L5 PZEM 02 PZEM-L5-02-CURR PZEM L5-02 Current 0.00 A
489 07/09/2026 03:45:00 MB-L3-01Mainboard Lantai 3 L3-LUX-05 Illuminance / LUX 5 0.30 lux
490 07/09/2026 03:45:00 MB-L3-01Mainboard Lantai 3 L3-SHT-03-T SHT20 3 Temperature 28.50 °C
491 07/09/2026 03:45:00 PWR-L5-02Power Meter L5 PZEM 02 PZEM-L5-02-FREQ PZEM L5-02 Frequency 50.00 Hz
492 07/09/2026 03:45:00 MB-L5-01Mainboard Lantai 5 L5-AI-01 Analog Input 1 3.05 V
493 07/09/2026 03:45:00 MB-L5-01Mainboard Lantai 5 L5-LUX-03 Illuminance / LUX 3 0.20 lux
494 07/09/2026 03:45:00 MB-L3-01Mainboard Lantai 3 L3-SHT-01-RH SHT20 1 Humidity 46.90 %RH
495 07/09/2026 03:45:00 MB-L5-01Mainboard Lantai 5 L5-AI-04 Analog Input 4 3.05 V
496 07/09/2026 03:45:00 PWR-L5-01Power Meter L5 PZEM 01 PZEM-L5-01-CURR PZEM L5-01 Current 0.12 A
497 07/09/2026 03:45:00 AC-REMOTE-01Remote AC AC-MODE AC Operating Mode 1.00 code
498 07/09/2026 03:45:00 MB-L5-01Mainboard Lantai 5 L5-ST-02 Surface Temperature 2 21.90 °C
499 07/09/2026 03:45:00 WS-MOD-01Weather Station Module WS-RH Kelembapan Udara 80.80 %RH
500 07/09/2026 03:45:00 MB-L3-01Mainboard Lantai 3 L3-AI-02 Analog Input 2 3.12 V
Menampilkan maksimal 100 data per halaman